sensor_id;sensor_type;location;lat;lon;timestamp;temperature;humidity
19966;DHT22;10144;50.874;4.762;2023-12-20T00:01:23;5.50;99.90
19966;DHT22;10144;50.874;4.762;2023-12-20T00:03:51;5.50;99.90
19966;DHT22;10144;50.874;4.762;2023-12-20T00:06:17;5.50;99.90
19966;DHT22;10144;50.874;4.762;2023-12-20T00:08:46;5.40;99.90
19966;DHT22;10144;50.874;4.762;2023-12-20T00:11:16;5.50;99.90
19966;DHT22;10144;50.874;4.762;2023-12-20T00:13:45;5.50;99.90
19966;DHT22;10144;50.874;4.762;2023-12-20T00:16:11;5.30;99.90
19966;DHT22;10144;50.874;4.762;2023-12-20T00:18:41;5.40;99.90
19966;DHT22;10144;50.874;4.762;2023-12-20T00:21:10;5.40;99.90
19966;DHT22;10144;50.874;4.762;2023-12-20T00:26:58;5.40;99.90
19966;DHT22;10144;50.874;4.762;2023-12-20T00:32:45;5.40;99.90
19966;DHT22;10144;50.874;4.762;2023-12-20T00:38:36;5.60;99.90
19966;DHT22;10144;50.874;4.762;2023-12-20T00:44:24;5.70;99.90
19966;DHT22;10144;50.874;4.762;2023-12-20T00:50:25;5.50;99.90
19966;DHT22;10144;50.874;4.762;2023-12-20T00:52:53;5.50;99.90
19966;DHT22;10144;50.874;4.762;2023-12-20T00:55:23;5.40;99.90
19966;DHT22;10144;50.874;4.762;2023-12-20T00:57:51;5.40;99.90
19966;DHT22;10144;50.874;4.762;2023-12-20T01:00:24;5.40;99.90
19966;DHT22;10144;50.874;4.762;2023-12-20T01:03:08;5.40;99.90
19966;DHT22;10144;50.874;4.762;2023-12-20T01:05:51;5.30;99.90
19966;DHT22;10144;50.874;4.762;2023-12-20T01:08:20;5.20;99.90
19966;DHT22;10144;50.874;4.762;2023-12-20T01:10:55;5.30;99.90
19966;DHT22;10144;50.874;4.762;2023-12-20T01:16:54;5.30;99.90
19966;DHT22;10144;50.874;4.762;2023-12-20T01:19:24;5.30;99.90
19966;DHT22;10144;50.874;4.762;2023-12-20T01:21:51;5.30;99.90
19966;DHT22;10144;50.874;4.762;2023-12-20T01:24:17;5.20;99.90
19966;DHT22;10144;50.874;4.762;2023-12-20T01:26:44;5.20;99.90
19966;DHT22;10144;50.874;4.762;2023-12-20T01:29:10;5.20;99.90
19966;DHT22;10144;50.874;4.762;2023-12-20T01:31:55;5.20;99.90
19966;DHT22;10144;50.874;4.762;2023-12-20T01:34:23;5.10;99.90
19966;DHT22;10144;50.874;4.762;2023-12-20T01:36:59;5.20;99.90
19966;DHT22;10144;50.874;4.762;2023-12-20T01:39:28;5.10;99.90
19966;DHT22;10144;50.874;4.762;2023-12-20T01:45:23;5.10;99.90
19966;DHT22;10144;50.874;4.762;2023-12-20T01:47:51;5.00;99.90
19966;DHT22;10144;50.874;4.762;2023-12-20T01:50:44;5.10;99.90
19966;DHT22;10144;50.874;4.762;2023-12-20T01:53:19;5.10;99.90
19966;DHT22;10144;50.874;4.762;2023-12-20T01:55:50;5.10;99.90
19966;DHT22;10144;50.874;4.762;2023-12-20T01:58:22;5.10;99.90
19966;DHT22;10144;50.874;4.762;2023-12-20T02:01:02;5.00;99.90
19966;DHT22;10144;50.874;4.762;2023-12-20T02:03:42;5.00;99.90
19966;DHT22;10144;50.874;4.762;2023-12-20T02:06:11;5.00;99.90
19966;DHT22;10144;50.874;4.762;2023-12-20T02:08:40;4.90;99.90
19966;DHT22;10144;50.874;4.762;2023-12-20T02:11:27;5.00;99.90
19966;DHT22;10144;50.874;4.762;2023-12-20T02:13:54;4.90;99.90
19966;DHT22;10144;50.874;4.762;2023-12-20T02:16:23;5.00;99.90
19966;DHT22;10144;50.874;4.762;2023-12-20T02:18:55;5.00;99.90
19966;DHT22;10144;50.874;4.762;2023-12-20T02:21:34;5.10;99.90
19966;DHT22;10144;50.874;4.762;2023-12-20T02:24:10;5.00;99.90
19966;DHT22;10144;50.874;4.762;2023-12-20T02:29:50;4.80;99.90
19966;DHT22;10144;50.874;4.762;2023-12-20T02:32:20;4.70;99.90
19966;DHT22;10144;50.874;4.762;2023-12-20T02:34:48;4.80;99.90
19966;DHT22;10144;50.874;4.762;2023-12-20T02:37:16;4.70;99.90
19966;DHT22;10144;50.874;4.762;2023-12-20T02:43:34;4.60;99.90
19966;DHT22;10144;50.874;4.762;2023-12-20T02:46:05;4.70;99.90
19966;DHT22;10144;50.874;4.762;2023-12-20T02:48:34;4.80;99.90
19966;DHT22;10144;50.874;4.762;2023-12-20T02:54:08;4.90;99.90
19966;DHT22;10144;50.874;4.762;2023-12-20T02:56:52;5.10;99.90
19966;DHT22;10144;50.874;4.762;2023-12-20T02:59:17;5.10;99.90
19966;DHT22;10144;50.874;4.762;2023-12-20T03:01:46;5.30;99.90
19966;DHT22;10144;50.874;4.762;2023-12-20T03:04:17;5.40;99.90
19966;DHT22;10144;50.874;4.762;2023-12-20T03:06:46;5.30;99.90
19966;DHT22;10144;50.874;4.762;2023-12-20T03:09:15;5.30;99.90
19966;DHT22;10144;50.874;4.762;2023-12-20T03:11:43;5.30;99.90
19966;DHT22;10144;50.874;4.762;2023-12-20T03:14:24;5.30;99.90
19966;DHT22;10144;50.874;4.762;2023-12-20T03:23:31;5.20;99.90
19966;DHT22;10144;50.874;4.762;2023-12-20T03:26:11;5.20;99.90
19966;DHT22;10144;50.874;4.762;2023-12-20T03:28:53;5.20;99.90
19966;DHT22;10144;50.874;4.762;2023-12-20T03:31:24;5.30;99.90
19966;DHT22;10144;50.874;4.762;2023-12-20T03:33:58;5.20;99.90
19966;DHT22;10144;50.874;4.762;2023-12-20T03:36:27;5.20;99.90
19966;DHT22;10144;50.874;4.762;2023-12-20T03:42:15;5.30;99.90
19966;DHT22;10144;50.874;4.762;2023-12-20T03:45:14;5.40;99.90
19966;DHT22;10144;50.874;4.762;2023-12-20T03:47:43;5.40;99.90
19966;DHT22;10144;50.874;4.762;2023-12-20T03:50:08;5.40;99.90
19966;DHT22;10144;50.874;4.762;2023-12-20T03:52:35;5.50;99.90
19966;DHT22;10144;50.874;4.762;2023-12-20T03:55:04;5.40;99.90
19966;DHT22;10144;50.874;4.762;2023-12-20T03:57:33;5.50;99.90
19966;DHT22;10144;50.874;4.762;2023-12-20T03:59:59;5.50;99.90
19966;DHT22;10144;50.874;4.762;2023-12-20T04:05:43;5.40;99.90
19966;DHT22;10144;50.874;4.762;2023-12-20T04:08:11;5.20;99.90
19966;DHT22;10144;50.874;4.762;2023-12-20T04:10:44;5.20;99.90
19966;DHT22;10144;50.874;4.762;2023-12-20T04:13:12;5.20;99.90
19966;DHT22;10144;50.874;4.762;2023-12-20T04:15:40;5.30;99.90
19966;DHT22;10144;50.874;4.762;2023-12-20T04:18:09;5.40;99.90
19966;DHT22;10144;50.874;4.762;2023-12-20T04:20:41;5.40;99.90
19966;DHT22;10144;50.874;4.762;2023-12-20T04:23:07;5.40;99.90
19966;DHT22;10144;50.874;4.762;2023-12-20T04:25:40;5.30;99.90
19966;DHT22;10144;50.874;4.762;2023-12-20T04:28:30;5.30;99.90
19966;DHT22;10144;50.874;4.762;2023-12-20T04:30:59;5.30;99.90
19966;DHT22;10144;50.874;4.762;2023-12-20T04:33:27;5.20;99.90
19966;DHT22;10144;50.874;4.762;2023-12-20T04:35:56;5.20;99.90
19966;DHT22;10144;50.874;4.762;2023-12-20T04:38:58;5.10;99.90
19966;DHT22;10144;50.874;4.762;2023-12-20T04:44:47;5.10;99.90
19966;DHT22;10144;50.874;4.762;2023-12-20T04:47:13;5.20;99.90
19966;DHT22;10144;50.874;4.762;2023-12-20T04:49:41;5.10;99.90
19966;DHT22;10144;50.874;4.762;2023-12-20T04:52:16;5.10;99.90
19966;DHT22;10144;50.874;4.762;2023-12-20T04:54:45;5.10;99.90
19966;DHT22;10144;50.874;4.762;2023-12-20T04:57:12;5.10;99.90
19966;DHT22;10144;50.874;4.762;2023-12-20T04:59:41;5.10;99.90
19966;DHT22;10144;50.874;4.762;2023-12-20T05:02:13;5.10;99.90
19966;DHT22;10144;50.874;4.762;2023-12-20T05:04:39;5.00;99.90
19966;DHT22;10144;50.874;4.762;2023-12-20T05:07:07;5.00;99.90
19966;DHT22;10144;50.874;4.762;2023-12-20T05:09:52;5.00;99.90
19966;DHT22;10144;50.874;4.762;2023-12-20T05:12:26;4.90;99.90
19966;DHT22;10144;50.874;4.762;2023-12-20T05:14:54;4.90;99.90
19966;DHT22;10144;50.874;4.762;2023-12-20T05:21:01;5.00;99.90
19966;DHT22;10144;50.874;4.762;2023-12-20T05:24:03;4.90;99.90
19966;DHT22;10144;50.874;4.762;2023-12-20T05:26:31;4.80;99.90
19966;DHT22;10144;50.874;4.762;2023-12-20T05:29:00;4.80;99.90
19966;DHT22;10144;50.874;4.762;2023-12-20T05:31:28;4.90;99.90
19966;DHT22;10144;50.874;4.762;2023-12-20T05:33:57;4.90;99.90
19966;DHT22;10144;50.874;4.762;2023-12-20T05:36:27;4.80;99.90
19966;DHT22;10144;50.874;4.762;2023-12-20T05:38:55;4.70;99.90
19966;DHT22;10144;50.874;4.762;2023-12-20T05:41:21;4.70;99.90
19966;DHT22;10144;50.874;4.762;2023-12-20T05:43:51;4.70;99.90
19966;DHT22;10144;50.874;4.762;2023-12-20T05:46:17;4.70;99.90
19966;DHT22;10144;50.874;4.762;2023-12-20T05:48:44;4.80;99.90
19966;DHT22;10144;50.874;4.762;2023-12-20T05:51:12;4.80;99.90
19966;DHT22;10144;50.874;4.762;2023-12-20T05:53:38;4.80;99.90
19966;DHT22;10144;50.874;4.762;2023-12-20T05:59:19;4.80;99.90
19966;DHT22;10144;50.874;4.762;2023-12-20T06:01:47;4.70;99.90
19966;DHT22;10144;50.874;4.762;2023-12-20T06:04:22;4.70;99.90
19966;DHT22;10144;50.874;4.762;2023-12-20T06:06:49;4.70;99.90
19966;DHT22;10144;50.874;4.762;2023-12-20T06:09:32;4.80;99.90
19966;DHT22;10144;50.874;4.762;2023-12-20T06:12:12;5.00;99.90
19966;DHT22;10144;50.874;4.762;2023-12-20T06:14:40;4.90;99.90
19966;DHT22;10144;50.874;4.762;2023-12-20T06:17:09;4.90;99.90
19966;DHT22;10144;50.874;4.762;2023-12-20T06:19:35;4.90;99.90
19966;DHT22;10144;50.874;4.762;2023-12-20T06:22:04;4.90;99.90
19966;DHT22;10144;50.874;4.762;2023-12-20T06:24:30;4.90;99.90
19966;DHT22;10144;50.874;4.762;2023-12-20T06:26:58;4.90;99.90
19966;DHT22;10144;50.874;4.762;2023-12-20T06:29:27;4.90;99.90
19966;DHT22;10144;50.874;4.762;2023-12-20T06:31:56;5.00;99.90
19966;DHT22;10144;50.874;4.762;2023-12-20T06:34:25;5.10;99.90
19966;DHT22;10144;50.874;4.762;2023-12-20T06:36:54;5.10;99.90
19966;DHT22;10144;50.874;4.762;2023-12-20T06:39:23;5.10;99.90
19966;DHT22;10144;50.874;4.762;2023-12-20T06:41:52;5.10;99.90
19966;DHT22;10144;50.874;4.762;2023-12-20T06:44:23;5.10;99.90
19966;DHT22;10144;50.874;4.762;2023-12-20T06:46:52;5.10;99.90
19966;DHT22;10144;50.874;4.762;2023-12-20T06:49:20;5.10;99.90
19966;DHT22;10144;50.874;4.762;2023-12-20T06:51:47;5.10;99.90
19966;DHT22;10144;50.874;4.762;2023-12-20T06:54:13;5.00;99.90
19966;DHT22;10144;50.874;4.762;2023-12-20T06:56:42;5.00;99.90
19966;DHT22;10144;50.874;4.762;2023-12-20T06:59:09;4.90;99.90
19966;DHT22;10144;50.874;4.762;2023-12-20T07:01:38;4.90;99.90
19966;DHT22;10144;50.874;4.762;2023-12-20T07:04:06;4.80;99.90
19966;DHT22;10144;50.874;4.762;2023-12-20T07:06:35;4.80;99.90
19966;DHT22;10144;50.874;4.762;2023-12-20T07:09:04;4.80;99.90
19966;DHT22;10144;50.874;4.762;2023-12-20T07:11:29;4.80;99.90
19966;DHT22;10144;50.874;4.762;2023-12-20T07:13:58;4.80;99.90
19966;DHT22;10144;50.874;4.762;2023-12-20T07:16:27;4.80;99.90
19966;DHT22;10144;50.874;4.762;2023-12-20T07:18:56;4.70;99.90
19966;DHT22;10144;50.874;4.762;2023-12-20T07:21:22;4.80;99.90
19966;DHT22;10144;50.874;4.762;2023-12-20T07:23:49;4.70;99.90
19966;DHT22;10144;50.874;4.762;2023-12-20T07:26:16;4.70;99.90
19966;DHT22;10144;50.874;4.762;2023-12-20T07:28:43;4.60;99.90
19966;DHT22;10144;50.874;4.762;2023-12-20T07:31:11;4.70;99.90
19966;DHT22;10144;50.874;4.762;2023-12-20T07:33:40;4.80;99.90
19966;DHT22;10144;50.874;4.762;2023-12-20T07:36:12;4.80;99.90
19966;DHT22;10144;50.874;4.762;2023-12-20T07:38:41;4.80;99.90
19966;DHT22;10144;50.874;4.762;2023-12-20T07:41:09;4.90;99.90
19966;DHT22;10144;50.874;4.762;2023-12-20T07:43:39;4.90;99.90
19966;DHT22;10144;50.874;4.762;2023-12-20T07:46:11;4.80;99.90
19966;DHT22;10144;50.874;4.762;2023-12-20T07:48:39;4.80;99.90
19966;DHT22;10144;50.874;4.762;2023-12-20T07:51:09;4.70;99.90
19966;DHT22;10144;50.874;4.762;2023-12-20T07:53:37;4.80;99.90
19966;DHT22;10144;50.874;4.762;2023-12-20T07:56:17;4.70;99.90
19966;DHT22;10144;50.874;4.762;2023-12-20T07:58:46;4.80;99.90
19966;DHT22;10144;50.874;4.762;2023-12-20T08:01:15;4.80;99.90
19966;DHT22;10144;50.874;4.762;2023-12-20T08:03:43;4.80;99.90
19966;DHT22;10144;50.874;4.762;2023-12-20T08:06:09;4.90;99.90
19966;DHT22;10144;50.874;4.762;2023-12-20T08:08:43;5.00;99.90
19966;DHT22;10144;50.874;4.762;2023-12-20T08:11:12;5.00;99.90
19966;DHT22;10144;50.874;4.762;2023-12-20T08:13:45;5.10;99.90
19966;DHT22;10144;50.874;4.762;2023-12-20T08:16:14;5.30;99.90
19966;DHT22;10144;50.874;4.762;2023-12-20T08:18:44;5.50;99.90
19966;DHT22;10144;50.874;4.762;2023-12-20T08:21:10;5.80;99.90
19966;DHT22;10144;50.874;4.762;2023-12-20T08:23:38;6.00;99.90
19966;DHT22;10144;50.874;4.762;2023-12-20T08:26:07;6.30;99.90
19966;DHT22;10144;50.874;4.762;2023-12-20T08:28:34;6.70;99.90
19966;DHT22;10144;50.874;4.762;2023-12-20T08:31:03;7.00;99.90
19966;DHT22;10144;50.874;4.762;2023-12-20T08:33:32;7.50;99.90
19966;DHT22;10144;50.874;4.762;2023-12-20T08:36:12;8.30;99.90
19966;DHT22;10144;50.874;4.762;2023-12-20T08:38:41;8.60;99.90
19966;DHT22;10144;50.874;4.762;2023-12-20T08:41:13;9.00;99.90
19966;DHT22;10144;50.874;4.762;2023-12-20T08:43:41;9.70;99.90
19966;DHT22;10144;50.874;4.762;2023-12-20T08:46:08;10.20;99.90
19966;DHT22;10144;50.874;4.762;2023-12-20T08:48:38;10.30;99.90
19966;DHT22;10144;50.874;4.762;2023-12-20T08:51:07;9.60;99.90
19966;DHT22;10144;50.874;4.762;2023-12-20T08:53:39;9.00;99.90
19966;DHT22;10144;50.874;4.762;2023-12-20T08:56:11;9.00;99.90
19966;DHT22;10144;50.874;4.762;2023-12-20T08:58:37;8.90;99.90
19966;DHT22;10144;50.874;4.762;2023-12-20T09:01:14;8.50;99.90
19966;DHT22;10144;50.874;4.762;2023-12-20T09:03:40;8.20;99.90
19966;DHT22;10144;50.874;4.762;2023-12-20T09:06:06;7.70;99.90
19966;DHT22;10144;50.874;4.762;2023-12-20T09:08:32;7.40;99.90
19966;DHT22;10144;50.874;4.762;2023-12-20T09:10:57;7.40;99.90
19966;DHT22;10144;50.874;4.762;2023-12-20T09:13:23;7.30;99.90
19966;DHT22;10144;50.874;4.762;2023-12-20T09:15:57;7.20;99.90
19966;DHT22;10144;50.874;4.762;2023-12-20T09:18:23;7.50;99.90
19966;DHT22;10144;50.874;4.762;2023-12-20T09:20:49;8.20;99.90
19966;DHT22;10144;50.874;4.762;2023-12-20T09:23:14;9.30;99.90
19966;DHT22;10144;50.874;4.762;2023-12-20T09:25:40;10.60;99.90
19966;DHT22;10144;50.874;4.762;2023-12-20T09:28:06;11.60;99.90
19966;DHT22;10144;50.874;4.762;2023-12-20T09:30:31;12.30;99.90
19966;DHT22;10144;50.874;4.762;2023-12-20T09:32:57;13.40;99.90
19966;DHT22;10144;50.874;4.762;2023-12-20T09:35:23;14.30;99.90
19966;DHT22;10144;50.874;4.762;2023-12-20T09:37:49;14.70;99.90
19966;DHT22;10144;50.874;4.762;2023-12-20T09:40:18;14.90;99.90
19966;DHT22;10144;50.874;4.762;2023-12-20T09:43:09;15.90;94.50
19966;DHT22;10144;50.874;4.762;2023-12-20T09:45:35;15.70;98.70
19966;DHT22;10144;50.874;4.762;2023-12-20T09:48:01;15.80;91.40
19966;DHT22;10144;50.874;4.762;2023-12-20T09:50:30;16.80;50.90
19966;DHT22;10144;50.874;4.762;2023-12-20T09:53:02;17.40;64.40
19966;DHT22;10144;50.874;4.762;2023-12-20T09:55:32;17.30;9.80
19966;DHT22;10144;50.874;4.762;2023-12-20T09:57:59;16.50;25.00
19966;DHT22;10144;50.874;4.762;2023-12-20T10:00:25;16.00;31.60
19966;DHT22;10144;50.874;4.762;2023-12-20T10:02:57;15.50;78.10
19966;DHT22;10144;50.874;4.762;2023-12-20T10:05:30;15.40;77.80
19966;DHT22;10144;50.874;4.762;2023-12-20T10:07:57;15.60;63.20
19966;DHT22;10144;50.874;4.762;2023-12-20T10:10:23;14.80;92.70
19966;DHT22;10144;50.874;4.762;2023-12-20T10:13:07;13.50;99.90
19966;DHT22;10144;50.874;4.762;2023-12-20T10:15:37;12.40;99.90
19966;DHT22;10144;50.874;4.762;2023-12-20T10:18:04;11.80;99.90
19966;DHT22;10144;50.874;4.762;2023-12-20T10:20:31;10.80;99.90
19966;DHT22;10144;50.874;4.762;2023-12-20T10:22:58;10.10;99.90
19966;DHT22;10144;50.874;4.762;2023-12-20T10:25:27;9.80;99.90
19966;DHT22;10144;50.874;4.762;2023-12-20T10:28:13;9.50;99.90
19966;DHT22;10144;50.874;4.762;2023-12-20T10:30:40;9.10;99.90
19966;DHT22;10144;50.874;4.762;2023-12-20T10:33:07;9.00;99.90
19966;DHT22;10144;50.874;4.762;2023-12-20T10:35:39;9.00;99.90
19966;DHT22;10144;50.874;4.762;2023-12-20T10:38:08;9.00;99.90
19966;DHT22;10144;50.874;4.762;2023-12-20T10:40:35;8.90;99.90
19966;DHT22;10144;50.874;4.762;2023-12-20T10:43:05;8.80;99.90
19966;DHT22;10144;50.874;4.762;2023-12-20T10:45:31;8.70;99.90
19966;DHT22;10144;50.874;4.762;2023-12-20T10:48:01;8.60;99.90
19966;DHT22;10144;50.874;4.762;2023-12-20T10:50:31;8.60;99.90
19966;DHT22;10144;50.874;4.762;2023-12-20T10:53:07;8.60;99.90
19966;DHT22;10144;50.874;4.762;2023-12-20T10:55:34;8.50;99.90
19966;DHT22;10144;50.874;4.762;2023-12-20T10:58:09;8.50;99.90
19966;DHT22;10144;50.874;4.762;2023-12-20T11:00:39;8.50;99.90
19966;DHT22;10144;50.874;4.762;2023-12-20T11:03:09;8.50;99.90
19966;DHT22;10144;50.874;4.762;2023-12-20T11:05:53;8.50;99.90
19966;DHT22;10144;50.874;4.762;2023-12-20T11:11:20;8.50;99.90
19966;DHT22;10144;50.874;4.762;2023-12-20T11:14:00;8.60;99.90
19966;DHT22;10144;50.874;4.762;2023-12-20T11:16:28;8.80;99.90
19966;DHT22;10144;50.874;4.762;2023-12-20T11:18:54;8.80;99.90
19966;DHT22;10144;50.874;4.762;2023-12-20T11:21:20;8.80;99.90
19966;DHT22;10144;50.874;4.762;2023-12-20T11:23:49;8.60;99.90
19966;DHT22;10144;50.874;4.762;2023-12-20T11:26:22;8.50;99.90
19966;DHT22;10144;50.874;4.762;2023-12-20T11:28:52;8.40;99.90
19966;DHT22;10144;50.874;4.762;2023-12-20T11:31:17;8.40;99.90
19966;DHT22;10144;50.874;4.762;2023-12-20T11:33:43;8.40;99.90
19966;DHT22;10144;50.874;4.762;2023-12-20T11:36:18;8.50;99.90
19966;DHT22;10144;50.874;4.762;2023-12-20T11:38:57;8.50;99.90
19966;DHT22;10144;50.874;4.762;2023-12-20T11:41:23;8.50;99.90
19966;DHT22;10144;50.874;4.762;2023-12-20T11:43:56;8.30;99.90
19966;DHT22;10144;50.874;4.762;2023-12-20T11:46:22;8.30;99.90
19966;DHT22;10144;50.874;4.762;2023-12-20T11:48:52;8.40;99.90
19966;DHT22;10144;50.874;4.762;2023-12-20T11:51:18;8.50;99.90
19966;DHT22;10144;50.874;4.762;2023-12-20T11:53:43;8.50;99.90
19966;DHT22;10144;50.874;4.762;2023-12-20T11:56:16;8.60;99.90
19966;DHT22;10144;50.874;4.762;2023-12-20T11:58:42;8.60;99.90
19966;DHT22;10144;50.874;4.762;2023-12-20T12:01:09;8.60;99.90
19966;DHT22;10144;50.874;4.762;2023-12-20T12:03:36;8.60;99.90
19966;DHT22;10144;50.874;4.762;2023-12-20T12:06:02;8.50;99.90
19966;DHT22;10144;50.874;4.762;2023-12-20T12:08:32;8.60;99.90
19966;DHT22;10144;50.874;4.762;2023-12-20T12:10:59;8.70;99.90
19966;DHT22;10144;50.874;4.762;2023-12-20T12:13:24;8.80;99.90
19966;DHT22;10144;50.874;4.762;2023-12-20T12:15:58;8.70;99.90
19966;DHT22;10144;50.874;4.762;2023-12-20T12:18:24;8.60;99.90
19966;DHT22;10144;50.874;4.762;2023-12-20T12:20:50;8.60;99.90
19966;DHT22;10144;50.874;4.762;2023-12-20T12:23:22;8.70;99.90
19966;DHT22;10144;50.874;4.762;2023-12-20T12:25:49;8.80;99.90
19966;DHT22;10144;50.874;4.762;2023-12-20T12:28:14;9.10;99.90
19966;DHT22;10144;50.874;4.762;2023-12-20T12:30:41;9.00;99.90
19966;DHT22;10144;50.874;4.762;2023-12-20T12:33:13;8.90;99.90
19966;DHT22;10144;50.874;4.762;2023-12-20T12:35:41;8.80;99.90
19966;DHT22;10144;50.874;4.762;2023-12-20T12:38:08;8.90;99.90
19966;DHT22;10144;50.874;4.762;2023-12-20T12:40:34;8.70;99.90
19966;DHT22;10144;50.874;4.762;2023-12-20T12:43:04;8.80;99.90
19966;DHT22;10144;50.874;4.762;2023-12-20T12:45:32;8.60;99.90
19966;DHT22;10144;50.874;4.762;2023-12-20T12:47:59;8.50;99.90
19966;DHT22;10144;50.874;4.762;2023-12-20T12:50:25;8.50;99.90
19966;DHT22;10144;50.874;4.762;2023-12-20T12:52:52;8.50;99.90
19966;DHT22;10144;50.874;4.762;2023-12-20T12:55:17;8.50;99.90
19966;DHT22;10144;50.874;4.762;2023-12-20T12:57:44;8.40;99.90
19966;DHT22;10144;50.874;4.762;2023-12-20T13:00:10;8.30;99.90
19966;DHT22;10144;50.874;4.762;2023-12-20T13:02:37;8.30;99.90
19966;DHT22;10144;50.874;4.762;2023-12-20T13:05:07;8.30;99.90
19966;DHT22;10144;50.874;4.762;2023-12-20T13:07:34;8.20;99.90
19966;DHT22;10144;50.874;4.762;2023-12-20T13:10:01;8.20;99.90
19966;DHT22;10144;50.874;4.762;2023-12-20T13:12:28;8.30;99.90
19966;DHT22;10144;50.874;4.762;2023-12-20T13:14:54;8.20;99.90
19966;DHT22;10144;50.874;4.762;2023-12-20T13:17:20;8.40;99.90
19966;DHT22;10144;50.874;4.762;2023-12-20T13:19:46;8.30;99.90
19966;DHT22;10144;50.874;4.762;2023-12-20T13:22:12;8.30;99.90
19966;DHT22;10144;50.874;4.762;2023-12-20T13:24:37;8.20;99.90
19966;DHT22;10144;50.874;4.762;2023-12-20T13:27:03;8.20;99.90
19966;DHT22;10144;50.874;4.762;2023-12-20T13:29:29;8.10;99.90
19966;DHT22;10144;50.874;4.762;2023-12-20T13:31:54;8.10;99.90
19966;DHT22;10144;50.874;4.762;2023-12-20T13:34:20;8.10;99.90
19966;DHT22;10144;50.874;4.762;2023-12-20T13:36:50;8.10;99.90
19966;DHT22;10144;50.874;4.762;2023-12-20T13:39:16;8.20;99.90
19966;DHT22;10144;50.874;4.762;2023-12-20T13:41:51;8.20;99.90
19966;DHT22;10144;50.874;4.762;2023-12-20T13:44:18;8.30;99.90
19966;DHT22;10144;50.874;4.762;2023-12-20T13:46:43;8.30;99.90
19966;DHT22;10144;50.874;4.762;2023-12-20T13:49:10;8.30;99.90
19966;DHT22;10144;50.874;4.762;2023-12-20T13:51:37;8.30;99.90
19966;DHT22;10144;50.874;4.762;2023-12-20T13:54:04;8.30;99.90
19966;DHT22;10144;50.874;4.762;2023-12-20T13:56:30;8.40;99.90
19966;DHT22;10144;50.874;4.762;2023-12-20T13:58:56;8.40;99.90
19966;DHT22;10144;50.874;4.762;2023-12-20T14:01:23;8.40;99.90
19966;DHT22;10144;50.874;4.762;2023-12-20T14:03:53;8.50;99.90
19966;DHT22;10144;50.874;4.762;2023-12-20T14:06:18;8.50;99.90
19966;DHT22;10144;50.874;4.762;2023-12-20T14:08:44;8.50;99.90
19966;DHT22;10144;50.874;4.762;2023-12-20T14:11:13;8.50;99.90
19966;DHT22;10144;50.874;4.762;2023-12-20T14:13:41;8.50;99.90
19966;DHT22;10144;50.874;4.762;2023-12-20T14:16:06;8.30;99.90
19966;DHT22;10144;50.874;4.762;2023-12-20T14:18:32;8.30;99.90
19966;DHT22;10144;50.874;4.762;2023-12-20T14:21:00;8.30;99.90
19966;DHT22;10144;50.874;4.762;2023-12-20T14:23:29;8.30;99.90
19966;DHT22;10144;50.874;4.762;2023-12-20T14:25:55;8.20;99.90
19966;DHT22;10144;50.874;4.762;2023-12-20T14:28:26;8.20;99.90
19966;DHT22;10144;50.874;4.762;2023-12-20T14:30:52;8.30;99.90
19966;DHT22;10144;50.874;4.762;2023-12-20T14:33:18;8.30;99.90
19966;DHT22;10144;50.874;4.762;2023-12-20T14:35:49;8.30;99.90
19966;DHT22;10144;50.874;4.762;2023-12-20T14:38:15;8.30;99.90
19966;DHT22;10144;50.874;4.762;2023-12-20T14:40:42;8.30;99.90
19966;DHT22;10144;50.874;4.762;2023-12-20T14:43:10;8.30;99.90
19966;DHT22;10144;50.874;4.762;2023-12-20T14:45:37;8.40;99.90
19966;DHT22;10144;50.874;4.762;2023-12-20T14:48:03;8.50;99.90
19966;DHT22;10144;50.874;4.762;2023-12-20T14:50:29;8.60;99.90
19966;DHT22;10144;50.874;4.762;2023-12-20T14:52:54;8.70;99.90
19966;DHT22;10144;50.874;4.762;2023-12-20T14:55:29;8.70;99.90
19966;DHT22;10144;50.874;4.762;2023-12-20T14:57:55;8.60;99.90
19966;DHT22;10144;50.874;4.762;2023-12-20T15:00:20;8.60;99.90
19966;DHT22;10144;50.874;4.762;2023-12-20T15:02:46;8.70;99.90
19966;DHT22;10144;50.874;4.762;2023-12-20T15:05:12;8.60;99.90
19966;DHT22;10144;50.874;4.762;2023-12-20T15:07:38;8.60;99.90
19966;DHT22;10144;50.874;4.762;2023-12-20T15:10:03;8.60;99.90
19966;DHT22;10144;50.874;4.762;2023-12-20T15:12:29;8.50;99.90
19966;DHT22;10144;50.874;4.762;2023-12-20T15:14:55;8.50;99.90
19966;DHT22;10144;50.874;4.762;2023-12-20T15:17:21;8.50;99.90
19966;DHT22;10144;50.874;4.762;2023-12-20T15:19:47;8.50;99.90
19966;DHT22;10144;50.874;4.762;2023-12-20T15:22:13;8.50;99.90
19966;DHT22;10144;50.874;4.762;2023-12-20T15:24:38;8.50;99.90
19966;DHT22;10144;50.874;4.762;2023-12-20T15:27:06;8.40;99.90
19966;DHT22;10144;50.874;4.762;2023-12-20T15:29:32;8.40;99.90
19966;DHT22;10144;50.874;4.762;2023-12-20T15:31:58;8.40;99.90
19966;DHT22;10144;50.874;4.762;2023-12-20T15:34:26;8.50;99.90
19966;DHT22;10144;50.874;4.762;2023-12-20T15:36:51;8.50;99.90
19966;DHT22;10144;50.874;4.762;2023-12-20T15:39:21;8.40;99.90
19966;DHT22;10144;50.874;4.762;2023-12-20T15:41:49;8.50;99.90
19966;DHT22;10144;50.874;4.762;2023-12-20T15:47:07;8.40;99.90
19966;DHT22;10144;50.874;4.762;2023-12-20T15:49:32;8.50;99.90
19966;DHT22;10144;50.874;4.762;2023-12-20T15:51:58;8.50;99.90
19966;DHT22;10144;50.874;4.762;2023-12-20T15:54:24;8.60;99.90
19966;DHT22;10144;50.874;4.762;2023-12-20T15:56:50;8.60;99.90
19966;DHT22;10144;50.874;4.762;2023-12-20T15:59:25;8.60;99.90
19966;DHT22;10144;50.874;4.762;2023-12-20T16:01:51;8.70;99.90
19966;DHT22;10144;50.874;4.762;2023-12-20T16:04:16;8.70;99.90
19966;DHT22;10144;50.874;4.762;2023-12-20T16:06:42;8.80;99.90
19966;DHT22;10144;50.874;4.762;2023-12-20T16:09:09;8.90;99.90
19966;DHT22;10144;50.874;4.762;2023-12-20T16:11:34;8.90;99.90
19966;DHT22;10144;50.874;4.762;2023-12-20T16:14:00;8.90;99.90
19966;DHT22;10144;50.874;4.762;2023-12-20T16:16:26;8.90;99.90
19966;DHT22;10144;50.874;4.762;2023-12-20T16:18:51;8.90;99.90
19966;DHT22;10144;50.874;4.762;2023-12-20T16:21:17;8.80;99.90
19966;DHT22;10144;50.874;4.762;2023-12-20T16:23:42;8.80;99.90
19966;DHT22;10144;50.874;4.762;2023-12-20T16:26:08;8.80;99.90
19966;DHT22;10144;50.874;4.762;2023-12-20T16:28:34;8.90;99.90
19966;DHT22;10144;50.874;4.762;2023-12-20T16:30:59;8.80;99.90
19966;DHT22;10144;50.874;4.762;2023-12-20T16:33:25;8.70;99.90
19966;DHT22;10144;50.874;4.762;2023-12-20T16:35:51;8.70;99.90
19966;DHT22;10144;50.874;4.762;2023-12-20T16:38:16;8.70;99.90
19966;DHT22;10144;50.874;4.762;2023-12-20T16:40:42;8.70;99.90
19966;DHT22;10144;50.874;4.762;2023-12-20T16:43:09;8.70;99.90
19966;DHT22;10144;50.874;4.762;2023-12-20T16:45:35;8.70;99.90
19966;DHT22;10144;50.874;4.762;2023-12-20T16:48:01;8.70;99.90
19966;DHT22;10144;50.874;4.762;2023-12-20T16:50:27;8.60;99.90
19966;DHT22;10144;50.874;4.762;2023-12-20T16:52:52;8.60;99.90
19966;DHT22;10144;50.874;4.762;2023-12-20T16:55:18;8.60;99.90
19966;DHT22;10144;50.874;4.762;2023-12-20T16:57:45;8.60;99.90
19966;DHT22;10144;50.874;4.762;2023-12-20T17:00:11;8.60;99.90